createdAt,value
2022-08-29T00:01:58.577Z,19.39
2022-08-29T00:05:01.218Z,19.39
2022-08-29T00:08:06.675Z,19.31
2022-08-29T00:11:09.293Z,19.09
2022-08-29T00:14:20.448Z,19.18
2022-08-29T00:17:25.918Z,19.34
2022-08-29T00:20:34.625Z,19.35
2022-08-29T00:23:39.017Z,19.37
2022-08-29T00:26:41.614Z,19.40
2022-08-29T00:29:44.235Z,19.37
2022-08-29T00:32:46.805Z,19.37
2022-08-29T00:35:49.445Z,19.37
2022-08-29T00:38:54.799Z,19.45
2022-08-29T00:42:01.011Z,19.38
2022-08-29T00:45:05.954Z,19.36
2022-08-29T00:48:13.089Z,19.42
2022-08-29T00:51:18.763Z,19.32
2022-08-29T00:54:23.530Z,19.27
2022-08-29T00:57:29.429Z,19.34
2022-08-29T01:00:33.106Z,19.21
2022-08-29T01:03:42.687Z,19.26
2022-08-29T01:06:46.644Z,19.36
2022-08-29T01:09:50.614Z,19.27
2022-08-29T01:12:52.401Z,19.34
2022-08-29T01:15:55.905Z,19.37
2022-08-29T01:19:04.125Z,19.07
2022-08-29T01:22:19.874Z,19.26
2022-08-29T01:25:26.853Z,19.36
2022-08-29T01:28:32.671Z,19.31
2022-08-29T01:31:55.895Z,19.36
2022-08-29T01:35:00.373Z,19.20
2022-08-29T01:38:03.108Z,19.21
2022-08-29T01:41:07.429Z,19.26
2022-08-29T01:44:12.473Z,19.44
2022-08-29T01:47:15.206Z,19.31
2022-08-29T01:50:18.255Z,19.43
2022-08-29T01:53:20.869Z,19.55
2022-08-29T01:56:27.280Z,19.54
2022-08-29T01:59:31.539Z,19.59
2022-08-29T02:02:34.328Z,19.48
2022-08-29T02:05:37.006Z,19.48
2022-08-29T02:08:41.290Z,19.59
2022-08-29T02:11:46.417Z,19.55
2022-08-29T02:14:50.601Z,19.52
2022-08-29T02:17:53.157Z,19.48
2022-08-29T02:20:55.826Z,19.46
2022-08-29T02:24:11.459Z,19.38
2022-08-29T02:27:24.936Z,19.26
2022-08-29T02:30:27.662Z,19.38
2022-08-29T02:33:31.288Z,19.34
2022-08-29T02:36:35.010Z,19.34
2022-08-29T02:39:37.622Z,19.34
2022-08-29T02:42:41.578Z,19.40
2022-08-29T02:45:44.834Z,19.22
2022-08-29T02:48:54.126Z,19.30
2022-08-29T02:52:06.510Z,19.28
2022-08-29T02:55:12.237Z,19.35
2022-08-29T02:58:16.753Z,19.38
2022-08-29T03:01:21.528Z,19.40
2022-08-29T03:04:24.270Z,19.33
2022-08-29T03:07:26.922Z,19.38
2022-08-29T03:10:29.790Z,19.31
2022-08-29T03:13:34.623Z,19.38
2022-08-29T03:16:37.275Z,19.43
2022-08-29T03:19:39.901Z,19.42
2022-08-29T03:22:42.614Z,19.45
2022-08-29T03:25:45.235Z,19.47
2022-08-29T03:28:49.220Z,19.44
2022-08-29T03:31:51.832Z,19.38
2022-08-29T03:34:55.785Z,19.31
2022-08-29T03:37:58.505Z,19.25
2022-08-29T03:41:01.084Z,19.18
2022-08-29T03:44:05.215Z,19.17
2022-08-29T03:47:08.251Z,19.19
2022-08-29T03:50:13.096Z,19.19
2022-08-29T03:53:17.249Z,19.19
2022-08-29T03:56:20.626Z,19.22
2022-08-29T03:59:24.705Z,19.17
2022-08-29T04:02:27.430Z,19.20
2022-08-29T04:05:30.106Z,19.17
2022-08-29T04:08:32.708Z,19.19
2022-08-29T04:11:35.287Z,19.14
2022-08-29T04:14:39.477Z,19.09
2022-08-29T04:17:51.036Z,19.00
2022-08-29T04:21:02.573Z,19.11
2022-08-29T04:24:05.261Z,19.08
2022-08-29T04:27:08.062Z,19.15
2022-08-29T04:30:15.533Z,19.09
2022-08-29T04:33:22.521Z,19.04
2022-08-29T04:36:26.049Z,19.01
2022-08-29T04:39:28.618Z,19.15
2022-08-29T04:42:32.028Z,18.91
2022-08-29T04:45:36.743Z,19.05
2022-08-29T04:48:39.306Z,19.05
2022-08-29T04:51:41.955Z,18.65
2022-08-29T04:54:44.537Z,18.82
2022-08-29T04:57:47.482Z,19.08
2022-08-29T05:00:52.642Z,19.10
2022-08-29T05:03:56.477Z,18.84
2022-08-29T05:06:59.104Z,18.97
2022-08-29T05:10:05.314Z,19.08
2022-08-29T05:13:07.910Z,19.08
2022-08-29T05:16:13.974Z,18.97
2022-08-29T05:19:16.990Z,18.94
2022-08-29T05:22:21.070Z,19.11
2022-08-29T05:25:24.186Z,18.92
2022-08-29T05:28:26.927Z,18.97
2022-08-29T05:31:31.222Z,18.87
2022-08-29T05:34:35.292Z,18.83
2022-08-29T05:37:38.696Z,18.77
2022-08-29T05:40:41.859Z,18.82
2022-08-29T05:43:44.513Z,18.87
2022-08-29T05:46:48.716Z,18.97
2022-08-29T05:49:51.339Z,18.98
2022-08-29T05:52:53.921Z,19.11
2022-08-29T05:55:56.679Z,18.95
2022-08-29T05:58:59.497Z,19.08
2022-08-29T06:02:03.874Z,19.16
2022-08-29T06:05:07.166Z,19.10
2022-08-29T06:08:13.135Z,19.23
2022-08-29T06:11:17.259Z,19.35
2022-08-29T06:14:19.853Z,19.18
2022-08-29T06:17:23.802Z,19.15
2022-08-29T06:20:26.448Z,19.33
2022-08-29T06:23:29.063Z,19.43
2022-08-29T06:26:32.803Z,19.42
2022-08-29T06:29:43.508Z,19.42
2022-08-29T06:32:47.769Z,19.44
2022-08-29T06:35:50.337Z,19.39
2022-08-29T06:38:53.007Z,19.52
2022-08-29T06:41:55.601Z,19.73
2022-08-29T06:44:58.208Z,19.75
2022-08-29T06:48:02.107Z,19.68
2022-08-29T06:51:05.077Z,19.87
2022-08-29T06:54:09.166Z,19.65
2022-08-29T06:57:12.777Z,19.61
2022-08-29T07:00:22.126Z,19.65
2022-08-29T07:03:26.604Z,19.31
2022-08-29T07:06:29.813Z,19.51
2022-08-29T07:09:32.390Z,19.65
2022-08-29T07:12:35.293Z,19.79
2022-08-29T07:15:38.151Z,20.01
2022-08-29T07:18:42.102Z,19.84
2022-08-29T07:21:44.681Z,19.79
2022-08-29T07:24:47.307Z,19.95
2022-08-29T07:27:53.349Z,20.16
2022-08-29T07:30:56.213Z,20.10
2022-08-29T07:34:02.925Z,20.20
2022-08-29T07:37:06.122Z,20.26
2022-08-29T07:40:11.098Z,20.04
2022-08-29T07:43:19.249Z,19.95
2022-08-29T07:46:22.889Z,20.01
2022-08-29T07:49:40.339Z,20.29
2022-08-29T07:52:43.823Z,20.57
2022-08-29T07:55:46.632Z,20.83
2022-08-29T07:58:49.355Z,21.32
2022-08-29T08:01:52.266Z,21.52
2022-08-29T08:04:56.227Z,21.21
2022-08-29T08:08:02.159Z,21.07
2022-08-29T08:11:09.628Z,21.14
2022-08-29T08:14:12.980Z,21.08
2022-08-29T08:17:15.600Z,21.13
2022-08-29T08:20:19.701Z,21.14
2022-08-29T08:23:22.208Z,20.92
2022-08-29T08:26:25.023Z,21.01
2022-08-29T08:29:27.662Z,21.06
2022-08-29T08:32:32.667Z,21.28
2022-08-29T08:35:41.967Z,21.34
2022-08-29T08:38:44.915Z,21.33
2022-08-29T08:41:55.704Z,21.37
2022-08-29T08:45:09.020Z,21.47
2022-08-29T08:48:17.247Z,21.44
2022-08-29T08:51:24.554Z,21.52
2022-08-29T08:54:34.257Z,21.43
2022-08-29T08:57:40.866Z,21.44
2022-08-29T09:00:47.180Z,21.51
2022-08-29T09:04:10.497Z,21.54
2022-08-29T09:07:42.059Z,21.61
2022-08-29T09:10:58.855Z,21.59
2022-08-29T09:14:08.519Z,21.94
2022-08-29T09:17:20.304Z,22.57
2022-08-29T09:20:25.982Z,22.97
2022-08-29T09:23:37.435Z,22.95
2022-08-29T09:26:40.761Z,22.62
2022-08-29T09:29:43.702Z,23.04
2022-08-29T09:32:54.700Z,22.72
2022-08-29T09:35:57.291Z,22.77
2022-08-29T09:39:12.109Z,23.01
2022-08-29T09:42:19.257Z,23.08
2022-08-29T09:45:25.643Z,22.66
2022-08-29T09:48:32.132Z,22.52
2022-08-29T09:51:39.416Z,22.40
2022-08-29T09:54:44.432Z,22.09
2022-08-29T09:57:53.061Z,22.30
2022-08-29T10:01:02.182Z,22.47
2022-08-29T10:04:09.043Z,22.42
2022-08-29T10:07:17.415Z,22.61
2022-08-29T10:10:24.204Z,22.60
2022-08-29T10:13:34.376Z,22.89
2022-08-29T10:16:47.201Z,23.09
2022-08-29T10:19:50.353Z,23.18
2022-08-29T10:22:59.126Z,23.22
2022-08-29T10:26:10.569Z,23.18
2022-08-29T10:29:29.657Z,22.91
2022-08-29T10:32:55.949Z,22.77
2022-08-29T10:36:02.170Z,22.95
2022-08-29T10:39:13.670Z,22.93
2022-08-29T10:42:21.554Z,23.07
2022-08-29T10:45:30.684Z,23.08
2022-08-29T10:48:38.518Z,23.93
2022-08-29T10:51:48.431Z,24.37
2022-08-29T10:55:00.307Z,24.16
2022-08-29T10:58:12.781Z,23.57
2022-08-29T11:01:22.314Z,23.31
2022-08-29T11:04:31.788Z,23.27
2022-08-29T11:07:40.735Z,22.66
2022-08-29T11:10:49.673Z,22.70
2022-08-29T11:13:58.737Z,22.67
2022-08-29T11:17:06.971Z,22.58
2022-08-29T11:20:13.829Z,22.62
2022-08-29T11:23:28.103Z,22.91
2022-08-29T11:26:45.843Z,23.41
2022-08-29T11:29:57.894Z,23.40
2022-08-29T11:33:09.918Z,23.23
2022-08-29T11:36:40.633Z,23.34
2022-08-29T11:39:59.864Z,23.36
2022-08-29T11:43:12.420Z,24.04
2022-08-29T11:46:31.044Z,24.35
2022-08-29T11:49:40.857Z,24.43
2022-08-29T11:52:51.033Z,24.51
2022-08-29T11:56:21.413Z,24.35
2022-08-29T11:59:59.523Z,23.84
2022-08-29T12:03:04.561Z,23.71
2022-08-29T12:06:29.737Z,23.29
2022-08-29T12:09:51.047Z,23.30
2022-08-29T12:12:56.527Z,23.00
2022-08-29T12:16:08.652Z,23.04
2022-08-29T12:19:12.846Z,23.13
2022-08-29T12:22:53.033Z,22.91
2022-08-29T12:26:16.214Z,22.83
2022-08-29T12:29:22.048Z,22.66
2022-08-29T12:32:40.278Z,22.60
2022-08-29T12:36:10.793Z,22.78
2022-08-29T12:39:46.799Z,22.60
2022-08-29T12:43:07.748Z,22.59
2022-08-29T12:46:18.121Z,22.61
2022-08-29T12:49:25.578Z,22.59
2022-08-29T12:52:32.289Z,22.50
2022-08-29T12:55:39.851Z,22.53
2022-08-29T12:58:45.339Z,22.09
2022-08-29T13:01:50.452Z,22.27
2022-08-29T13:04:58.311Z,22.47
2022-08-29T13:08:09.630Z,22.54
2022-08-29T13:11:19.617Z,22.23
2022-08-29T13:14:23.690Z,22.13
2022-08-29T13:17:29.822Z,22.23
2022-08-29T13:20:46.727Z,22.32
2022-08-29T13:23:59.897Z,22.97
2022-08-29T13:27:06.309Z,23.63
2022-08-29T13:30:09.995Z,23.56
2022-08-29T13:33:34.822Z,23.55
2022-08-29T13:36:41.394Z,23.38
2022-08-29T13:39:47.837Z,23.10
2022-08-29T13:42:50.512Z,23.14
2022-08-29T13:46:03.410Z,23.09
2022-08-29T13:49:08.426Z,22.75
2022-08-29T13:52:11.572Z,22.93
2022-08-29T13:55:15.493Z,22.94
2022-08-29T13:58:22.686Z,23.18
2022-08-29T14:02:08.550Z,22.78
2022-08-29T14:04:48.659Z,22.92
2022-08-29T14:07:51.457Z,23.11
2022-08-29T14:10:55.358Z,23.61
2022-08-29T14:13:57.918Z,23.81
2022-08-29T14:17:00.672Z,23.94
2022-08-29T14:20:03.640Z,23.56
2022-08-29T14:23:06.301Z,23.07
2022-08-29T14:26:10.229Z,22.65
2022-08-29T14:29:12.953Z,22.48
2022-08-29T14:32:15.786Z,22.35
2022-08-29T14:35:25.731Z,22.38
2022-08-29T14:38:29.554Z,22.27
2022-08-29T14:41:33.830Z,22.13
2022-08-29T14:44:36.426Z,22.15
2022-08-29T14:47:39.507Z,22.24
2022-08-29T14:50:42.105Z,22.30
2022-08-29T14:53:51.605Z,21.75
2022-08-29T14:56:58.769Z,21.62
2022-08-29T15:00:01.392Z,22.13
2022-08-29T15:03:04.463Z,22.06
2022-08-29T15:06:07.594Z,22.00
2022-08-29T15:09:10.175Z,21.97
2022-08-29T15:12:15.721Z,21.92
2022-08-29T15:15:18.734Z,21.96
2022-08-29T15:19:00.691Z,21.75
2022-08-29T15:21:45.362Z,21.88
2022-08-29T15:24:50.008Z,21.95
2022-08-29T15:27:53.931Z,22.11
2022-08-29T15:30:56.542Z,22.20
2022-08-29T15:33:59.390Z,22.12
2022-08-29T15:37:02.223Z,21.68
2022-08-29T15:40:10.936Z,21.70
2022-08-29T15:43:16.851Z,21.38
2022-08-29T15:46:19.508Z,21.56
2022-08-29T15:49:25.557Z,21.43
2022-08-29T15:52:31.063Z,21.45
2022-08-29T15:55:33.954Z,21.35
2022-08-29T15:58:38.006Z,21.38
2022-08-29T16:01:43.541Z,21.06
2022-08-29T16:04:47.787Z,21.04
2022-08-29T16:07:50.601Z,20.42
2022-08-29T16:10:53.220Z,20.26
2022-08-29T16:14:15.672Z,20.47
2022-08-29T16:17:20.347Z,20.53
2022-08-29T16:20:23.170Z,20.53
2022-08-29T16:23:25.752Z,20.07
2022-08-29T16:26:28.464Z,19.71
2022-08-29T16:29:32.624Z,19.75
2022-08-29T16:32:35.460Z,19.61
2022-08-29T16:35:39.174Z,19.83
2022-08-29T16:38:42.853Z,19.83
2022-08-29T16:41:46.042Z,19.91
2022-08-29T16:44:50.007Z,19.74
2022-08-29T16:47:57.251Z,20.15
2022-08-29T16:51:00.180Z,20.17
2022-08-29T16:54:02.785Z,20.18
2022-08-29T16:57:05.758Z,20.04
2022-08-29T17:00:11.890Z,19.92
2022-08-29T17:03:19.412Z,19.85
2022-08-29T17:06:22.704Z,19.70
2022-08-29T17:09:25.342Z,19.95
2022-08-29T17:12:27.490Z,19.98
2022-08-29T17:15:30.751Z,19.84
2022-08-29T17:18:33.793Z,19.96
2022-08-29T17:21:36.683Z,19.89
2022-08-29T17:24:39.282Z,19.84
2022-08-29T17:27:55.506Z,19.88
2022-08-29T17:31:06.492Z,19.83
2022-08-29T17:34:13.088Z,19.97
2022-08-29T17:37:16.046Z,20.02
2022-08-29T17:40:19.131Z,19.91
2022-08-29T17:43:25.898Z,19.96
2022-08-29T17:46:30.193Z,19.83
2022-08-29T17:49:32.961Z,19.49
2022-08-29T17:52:35.611Z,19.69
2022-08-29T17:55:38.264Z,19.69
2022-08-29T17:58:40.881Z,19.54
2022-08-29T18:01:45.227Z,19.67
2022-08-29T18:04:47.859Z,19.53
2022-08-29T18:07:51.397Z,19.53
2022-08-29T18:10:53.986Z,19.70
2022-08-29T18:13:56.667Z,19.76
2022-08-29T18:17:00.674Z,19.42
2022-08-29T18:20:03.792Z,19.34
2022-08-29T18:23:06.349Z,19.55
2022-08-29T18:26:08.961Z,19.62
2022-08-29T18:29:11.707Z,19.49
2022-08-29T18:32:15.601Z,19.44
2022-08-29T18:35:18.673Z,19.29
2022-08-29T18:38:21.317Z,19.38
2022-08-29T18:41:23.865Z,19.42
2022-08-29T18:44:26.426Z,19.38
2022-08-29T18:47:30.380Z,19.33
2022-08-29T18:50:36.500Z,19.24
2022-08-29T18:53:39.780Z,19.18
2022-08-29T18:56:42.387Z,19.20
2022-08-29T18:59:45.046Z,19.20
2022-08-29T19:02:49.122Z,19.12
2022-08-29T19:05:53.862Z,19.08
2022-08-29T19:08:57.610Z,19.05
2022-08-29T19:12:00.544Z,19.00
2022-08-29T19:15:04.137Z,18.94
2022-08-29T19:18:09.473Z,18.89
2022-08-29T19:21:12.093Z,18.89
2022-08-29T19:24:14.693Z,18.86
2022-08-29T19:27:39.756Z,18.77
2022-08-29T19:30:40.090Z,18.61
2022-08-29T19:33:44.079Z,18.66
2022-08-29T19:36:47.333Z,18.58
2022-08-29T19:39:49.942Z,18.38
2022-08-29T19:42:53.992Z,18.29
2022-08-29T19:45:57.435Z,18.18
2022-08-29T19:52:10.786Z,18.15
2022-08-29T19:55:17.543Z,18.09
2022-08-29T19:58:20.228Z,17.99
2022-08-29T20:01:23.359Z,17.96
2022-08-29T20:04:27.532Z,17.92
2022-08-29T20:07:30.424Z,17.90
2022-08-29T20:10:34.882Z,17.76
2022-08-29T20:13:38.100Z,17.75
2022-08-29T20:16:41.712Z,17.79
2022-08-29T20:19:45.943Z,17.71
2022-08-29T20:22:49.165Z,17.62
2022-08-29T20:25:51.756Z,17.56
2022-08-29T20:28:54.841Z,17.66
2022-08-29T20:31:57.579Z,17.67
2022-08-29T20:35:02.968Z,17.67
2022-08-29T20:38:04.599Z,17.51
2022-08-29T20:41:07.256Z,17.47
2022-08-29T20:44:10.873Z,17.38
2022-08-29T20:47:15.621Z,17.52
2022-08-29T20:50:20.497Z,17.46
2022-08-29T20:53:32.415Z,17.48
2022-08-29T20:56:35.423Z,17.41
2022-08-29T20:59:39.376Z,17.31
2022-08-29T21:02:59.765Z,17.35
2022-08-29T21:06:04.329Z,17.28
2022-08-29T21:09:07.238Z,17.29
2022-08-29T21:12:11.704Z,17.30
2022-08-29T21:15:14.320Z,17.29
2022-08-29T21:18:20.216Z,17.26
2022-08-29T21:21:25.180Z,17.22
2022-08-29T21:24:28.783Z,17.29
2022-08-29T21:27:31.368Z,17.21
2022-08-29T21:30:34.440Z,17.18
2022-08-29T21:33:37.958Z,17.21
2022-08-29T21:36:41.995Z,17.19
2022-08-29T21:39:46.481Z,17.15
2022-08-29T21:42:49.037Z,17.12
2022-08-29T21:45:51.622Z,17.05
2022-08-29T21:48:56.679Z,17.09
2022-08-29T21:52:01.062Z,17.04
2022-08-29T21:55:05.023Z,17.06
2022-08-29T21:58:07.989Z,17.12
2022-08-29T22:01:11.364Z,16.97
2022-08-29T22:04:19.113Z,17.00
2022-08-29T22:07:33.130Z,17.03
2022-08-29T22:10:38.241Z,17.03
2022-08-29T22:13:41.167Z,17.00
2022-08-29T22:16:42.940Z,16.94
2022-08-29T22:19:45.758Z,16.96
2022-08-29T22:22:49.713Z,16.88
2022-08-29T22:25:53.756Z,16.87
2022-08-29T22:28:56.705Z,16.89
2022-08-29T22:32:00.485Z,16.98
2022-08-29T22:35:03.136Z,17.03
2022-08-29T22:38:07.091Z,17.00
2022-08-29T22:41:11.280Z,17.03
2022-08-29T22:44:59.612Z,17.04
2022-08-29T22:47:37.664Z,17.05
2022-08-29T22:50:40.317Z,16.97
2022-08-29T22:54:08.235Z,17.00
2022-08-29T22:57:13.593Z,17.15
2022-08-29T23:00:19.172Z,17.16
2022-08-29T23:03:21.790Z,17.16
2022-08-29T23:06:25.299Z,17.18
2022-08-29T23:09:35.392Z,17.23
2022-08-29T23:12:39.054Z,17.26
2022-08-29T23:15:41.706Z,17.33
2022-08-29T23:18:44.373Z,17.39
2022-08-29T23:21:46.981Z,17.48
2022-08-29T23:24:58.233Z,17.48
2022-08-29T23:28:02.027Z,17.50
2022-08-29T23:31:04.965Z,17.46
2022-08-29T23:34:07.999Z,17.51
2022-08-29T23:37:10.691Z,17.50
2022-08-29T23:40:21.089Z,17.51
2022-08-29T23:43:24.505Z,17.53
2022-08-29T23:46:27.454Z,17.51
2022-08-29T23:49:30.479Z,17.57
2022-08-29T23:52:33.114Z,17.60
2022-08-29T23:55:37.493Z,17.61
2022-08-29T23:58:40.099Z,17.64
